createdAt,value
2022-08-02T00:00:58.772Z,98678.53
2022-08-02T00:03:27.417Z,98682.34
2022-08-02T00:05:54.191Z,98675.72
2022-08-02T00:08:21.842Z,98683.06
2022-08-02T00:10:48.922Z,98670.59
2022-08-02T00:13:15.779Z,98679.75
2022-08-02T00:15:42.483Z,98676.44
2022-08-02T00:18:09.334Z,98677.19
2022-08-02T00:20:36.287Z,98675.00
2022-08-02T00:23:03.462Z,98668.38
2022-08-02T00:25:30.167Z,98666.56
2022-08-02T00:27:56.808Z,98678.66
2022-08-02T00:30:23.493Z,98672.41
2022-08-02T00:32:50.333Z,98681.63
2022-08-02T00:35:17.313Z,98674.63
2022-08-02T00:37:46.414Z,98668.03
2022-08-02T00:40:13.208Z,98669.53
2022-08-02T00:42:40.276Z,98670.25
2022-08-02T00:45:07.354Z,98666.56
2022-08-02T00:47:34.233Z,98666.97
2022-08-02T00:50:01.018Z,98670.63
2022-08-02T00:52:27.668Z,98662.94
2022-08-02T00:54:54.438Z,98657.84
2022-08-02T00:57:21.431Z,98665.53
2022-08-02T00:59:49.179Z,98663.31
2022-08-02T01:02:16.451Z,98663.00
2022-08-02T01:04:43.597Z,98675.84
2022-08-02T01:07:13.188Z,98667.03
2022-08-02T01:09:44.370Z,98670.69
2022-08-02T01:12:12.101Z,98668.13
2022-08-02T01:14:39.950Z,98668.13
2022-08-02T01:17:08.542Z,98668.84
2022-08-02T01:19:51.398Z,98660.41
2022-08-02T01:23:00.166Z,98666.66
2022-08-02T01:25:36.063Z,98666.31
2022-08-02T01:28:14.989Z,98674.72
2022-08-02T01:30:43.299Z,98670.72
2022-08-02T01:33:12.995Z,98669.22
2022-08-02T01:35:47.422Z,98670.34
2022-08-02T01:38:22.673Z,98664.09
2022-08-02T01:40:49.961Z,98665.56
2022-08-02T01:43:17.577Z,98664.44
2022-08-02T01:45:45.905Z,98664.84
2022-08-02T01:48:13.497Z,98663.00
2022-08-02T01:50:41.379Z,98662.59
2022-08-02T01:53:09.443Z,98663.66
2022-08-02T01:55:57.452Z,98673.19
2022-08-02T01:58:27.112Z,98673.50
2022-08-02T02:00:55.999Z,98677.13
2022-08-02T02:03:24.844Z,98672.44
2022-08-02T02:05:56.698Z,98657.84
2022-08-02T02:08:29.516Z,98671.00
2022-08-02T02:12:06.175Z,98659.25
2022-08-02T02:13:46.169Z,98661.03
2022-08-02T02:16:17.298Z,98669.81
2022-08-02T02:18:44.621Z,98671.63
2022-08-02T02:21:12.089Z,98680.53
2022-08-02T02:23:38.838Z,98675.03
2022-08-02T02:26:08.021Z,98677.19
2022-08-02T02:28:37.718Z,98686.00
2022-08-02T02:31:09.604Z,98677.97
2022-08-02T02:33:40.428Z,98688.22
2022-08-02T02:36:08.159Z,98698.44
2022-08-02T02:38:36.223Z,98698.03
2022-08-02T02:41:04.458Z,98701.03
2022-08-02T02:43:31.822Z,98699.19
2022-08-02T02:45:58.896Z,98696.31
2022-08-02T02:48:27.868Z,98702.53
2022-08-02T02:50:54.959Z,98701.09
2022-08-02T02:53:22.761Z,98705.13
2022-08-02T02:56:02.387Z,98700.75
2022-08-02T02:58:30.321Z,98701.13
2022-08-02T03:01:15.958Z,98697.81
2022-08-02T03:03:47.090Z,98702.22
2022-08-02T03:06:15.833Z,98707.34
2022-08-02T03:08:43.054Z,98710.59
2022-08-02T03:11:10.272Z,98711.69
2022-08-02T03:13:37.941Z,98712.81
2022-08-02T03:16:04.943Z,98709.88
2022-08-02T03:18:39.821Z,98717.56
2022-08-02T03:21:08.137Z,98707.31
2022-08-02T03:23:35.383Z,98704.06
2022-08-02T03:26:03.507Z,98703.69
2022-08-02T03:28:30.662Z,98706.66
2022-08-02T03:30:57.547Z,98697.47
2022-08-02T03:33:24.900Z,98696.72
2022-08-02T03:35:52.897Z,98704.44
2022-08-02T03:38:22.180Z,98705.13
2022-08-02T03:40:56.385Z,98702.94
2022-08-02T03:43:23.991Z,98698.16
2022-08-02T03:45:56.008Z,98708.75
2022-08-02T03:48:34.274Z,98707.31
2022-08-02T03:51:02.054Z,98703.31
2022-08-02T03:53:29.225Z,98702.91
2022-08-02T03:55:56.133Z,98705.84
2022-08-02T03:58:23.448Z,98710.25
2022-08-02T04:00:51.778Z,98720.91
2022-08-02T04:03:20.186Z,98724.94
2022-08-02T04:06:03.393Z,98723.09
2022-08-02T04:08:36.891Z,98722.75
2022-08-02T04:11:30.981Z,98727.91
2022-08-02T04:14:05.891Z,98737.84
2022-08-02T04:16:42.381Z,98738.19
2022-08-02T04:19:10.409Z,98745.91
2022-08-02T04:21:51.362Z,98734.91
2022-08-02T04:24:22.929Z,98744.81
2022-08-02T04:27:48.870Z,98747.75
2022-08-02T04:29:56.180Z,98749.56
2022-08-02T04:32:23.244Z,98751.41
2022-08-02T04:35:17.817Z,98754.00
2022-08-02T04:37:38.249Z,98758.75
2022-08-02T04:40:24.947Z,98767.22
2022-08-02T04:42:52.127Z,98767.56
2022-08-02T04:45:19.966Z,98763.56
2022-08-02T04:48:03.680Z,98776.41
2022-08-02T04:50:31.625Z,98771.22
2022-08-02T04:52:58.348Z,98772.75
2022-08-02T04:55:29.164Z,98779.72
2022-08-02T04:57:58.013Z,98777.88
2022-08-02T05:00:25.733Z,98780.41
2022-08-02T05:02:53.009Z,98782.25
2022-08-02T05:05:20.918Z,98784.47
2022-08-02T05:07:47.557Z,98792.53
2022-08-02T05:10:15.308Z,98783.31
2022-08-02T05:12:41.985Z,98789.19
2022-08-02T05:15:12.680Z,98780.72
2022-08-02T05:17:47.953Z,98785.84
2022-08-02T05:20:16.291Z,98788.78
2022-08-02T05:22:43.065Z,98788.78
2022-08-02T05:25:10.111Z,98794.63
2022-08-02T05:27:36.783Z,98789.72
2022-08-02T05:30:03.927Z,98786.03
2022-08-02T05:32:30.652Z,98778.97
2022-08-02T05:34:57.200Z,98785.13
2022-08-02T05:42:50.301Z,98787.53
2022-08-02T05:45:17.923Z,98789.03
2022-08-02T05:47:44.540Z,98789.22
2022-08-02T05:50:11.248Z,98791.63
2022-08-02T05:52:50.980Z,98795.63
2022-08-02T05:55:55.119Z,98786.78
2022-08-02T05:58:27.255Z,98789.63
2022-08-02T06:01:15.553Z,98793.56
2022-08-02T06:03:52.275Z,98795.25
2022-08-02T06:06:23.638Z,98798.84
2022-08-02T06:08:59.774Z,98791.91
2022-08-02T06:11:34.248Z,98794.81
2022-08-02T06:14:01.725Z,98784.09
2022-08-02T06:16:32.165Z,98784.44
2022-08-02T06:19:00.396Z,98792.63
2022-08-02T06:22:33.961Z,98791.19
2022-08-02T06:24:17.865Z,98799.16
2022-08-02T06:26:52.972Z,98797.94
2022-08-02T06:29:20.608Z,98797.81
2022-08-02T06:31:53.385Z,98794.47
2022-08-02T06:34:20.070Z,98794.31
2022-08-02T06:36:57.759Z,98796.06
2022-08-02T06:39:50.323Z,98803.91
2022-08-02T06:42:29.570Z,98803.16
2022-08-02T06:44:59.364Z,98806.31
2022-08-02T06:47:26.860Z,98807.16
2022-08-02T06:49:58.519Z,98801.78
2022-08-02T06:52:30.752Z,98801.56
2022-08-02T06:55:01.384Z,98803.72
2022-08-02T06:57:28.853Z,98805.22
2022-08-02T06:59:55.642Z,98806.44
2022-08-02T07:02:26.608Z,98806.13
2022-08-02T07:04:57.468Z,98811.66
2022-08-02T07:07:24.256Z,98805.84
2022-08-02T07:09:56.815Z,98800.66
2022-08-02T07:12:31.751Z,98803.69
2022-08-02T07:15:02.529Z,98802.88
2022-08-02T07:17:32.028Z,98802.19
2022-08-02T07:19:59.452Z,98802.94
2022-08-02T07:22:27.442Z,98792.81
2022-08-02T07:24:55.303Z,98799.03
2022-08-02T07:27:22.193Z,98798.53
2022-08-02T07:29:48.693Z,98789.88
2022-08-02T07:32:16.714Z,98789.19
2022-08-02T07:34:50.331Z,98797.44
2022-08-02T07:37:35.305Z,98796.03
2022-08-02T07:40:14.179Z,98794.19
2022-08-02T07:42:42.841Z,98790.13
2022-08-02T07:45:09.805Z,98786.22
2022-08-02T07:47:40.001Z,98785.97
2022-08-02T07:50:07.153Z,98789.00
2022-08-02T07:52:34.045Z,98780.25
2022-08-02T07:55:00.627Z,98779.13
2022-08-02T07:57:27.494Z,98787.47
2022-08-02T07:59:54.085Z,98771.56
2022-08-02T08:02:22.516Z,98781.66
2022-08-02T08:04:53.468Z,98773.13
2022-08-02T08:07:20.399Z,98778.81
2022-08-02T08:09:48.109Z,98772.38
2022-08-02T08:12:16.259Z,98781.22
2022-08-02T08:14:43.445Z,98777.16
2022-08-02T08:17:09.763Z,98771.91
2022-08-02T08:19:51.640Z,98781.34
2022-08-02T08:22:19.240Z,98775.44
2022-08-02T08:24:45.630Z,98777.78
2022-08-02T08:27:14.660Z,98772.88
2022-08-02T08:29:44.441Z,98771.88
2022-08-02T08:32:16.146Z,98769.28
2022-08-02T08:34:43.932Z,98768.97
2022-08-02T08:37:10.332Z,98767.91
2022-08-02T08:39:56.856Z,98774.22
2022-08-02T08:42:26.023Z,98765.50
2022-08-02T08:44:52.498Z,98774.22
2022-08-02T08:47:19.161Z,98771.47
2022-08-02T08:49:52.673Z,98766.06
2022-08-02T08:52:20.348Z,98766.78
2022-08-02T08:54:48.554Z,98765.66
2022-08-02T08:57:15.398Z,98764.44
2022-08-02T08:59:42.506Z,98768.56
2022-08-02T09:02:16.506Z,98767.63
2022-08-02T09:04:54.590Z,98773.38
2022-08-02T09:07:21.894Z,98768.25
2022-08-02T09:09:48.215Z,98768.78
2022-08-02T09:12:15.533Z,98771.22
2022-08-02T09:14:42.271Z,98773.19
2022-08-02T09:17:10.215Z,98765.88
2022-08-02T09:19:37.117Z,98771.78
2022-08-02T09:22:05.426Z,98773.13
2022-08-02T09:24:40.894Z,98765.44
2022-08-02T09:27:11.309Z,98777.16
2022-08-02T09:29:48.631Z,98770.34
2022-08-02T09:32:23.992Z,98773.78
2022-08-02T09:34:51.577Z,98771.56
2022-08-02T09:37:25.192Z,98766.00
2022-08-02T09:39:51.597Z,98773.50
2022-08-02T09:42:24.801Z,98758.44
2022-08-02T09:44:58.468Z,98742.28
2022-08-02T09:47:25.516Z,98747.19
2022-08-02T09:49:53.913Z,98747.59
2022-08-02T09:52:22.520Z,98743.38
2022-08-02T09:55:04.980Z,98736.88
2022-08-02T09:57:33.529Z,98737.31
2022-08-02T10:00:00.190Z,98739.66
2022-08-02T10:02:26.966Z,98732.78
2022-08-02T10:04:54.189Z,98733.31
2022-08-02T10:07:22.262Z,98736.41
2022-08-02T10:12:23.134Z,98734.88
2022-08-02T10:14:50.188Z,98734.16
2022-08-02T10:17:17.046Z,98720.44
2022-08-02T10:20:02.491Z,98722.28
2022-08-02T10:22:29.959Z,98719.94
2022-08-02T10:24:56.274Z,98717.22
2022-08-02T10:27:25.095Z,98711.13
2022-08-02T10:29:54.083Z,98711.97
2022-08-02T10:32:26.588Z,98718.63
2022-08-02T10:34:58.739Z,98716.28
2022-08-02T10:37:45.959Z,98715.03
2022-08-02T10:40:23.184Z,98723.91
2022-08-02T10:42:50.767Z,98703.53
2022-08-02T10:45:18.604Z,98701.69
2022-08-02T10:48:04.551Z,98708.63
2022-08-02T10:50:57.200Z,98711.50
2022-08-02T10:53:27.927Z,98702.72
2022-08-02T10:55:55.659Z,98684.91
2022-08-02T10:58:26.325Z,98682.00
2022-08-02T11:00:55.693Z,98678.75
2022-08-02T11:03:27.862Z,98681.72
2022-08-02T11:06:25.835Z,98682.28
2022-08-02T11:09:11.246Z,98681.16
2022-08-02T11:11:57.506Z,98680.88
2022-08-02T11:14:23.962Z,98681.66
2022-08-02T11:16:56.171Z,98676.81
2022-08-02T11:19:26.882Z,98685.03
2022-08-02T11:22:03.997Z,98682.44
2022-08-02T11:24:34.139Z,98687.00
2022-08-02T11:27:01.275Z,98691.63
2022-08-02T11:29:41.254Z,98693.94
2022-08-02T11:32:08.775Z,98690.44
2022-08-02T11:34:37.300Z,98691.47
2022-08-02T11:37:04.342Z,98690.41
2022-08-02T11:39:30.825Z,98690.75
2022-08-02T11:41:58.711Z,98686.69
2022-08-02T11:44:29.405Z,98695.16
2022-08-02T11:46:55.777Z,98684.50
2022-08-02T11:49:22.202Z,98677.22
2022-08-02T11:51:55.327Z,98675.00
2022-08-02T11:54:25.410Z,98672.38
2022-08-02T11:56:51.768Z,98674.38
2022-08-02T11:59:18.087Z,98675.84
2022-08-02T12:01:46.098Z,98672.56
2022-08-02T12:04:16.440Z,98666.72
2022-08-02T12:06:43.476Z,98668.88
2022-08-02T12:09:17.638Z,98658.69
2022-08-02T12:11:48.214Z,98656.44
2022-08-02T12:14:14.620Z,98649.06
2022-08-02T12:16:59.696Z,98644.38
2022-08-02T12:19:29.238Z,98649.41
2022-08-02T12:22:14.883Z,98646.78
2022-08-02T12:24:44.382Z,98648.66
2022-08-02T12:27:10.845Z,98639.91
2022-08-02T12:29:57.871Z,98638.63
2022-08-02T12:32:25.069Z,98638.72
2022-08-02T12:35:05.329Z,98616.91
2022-08-02T12:37:31.657Z,98625.44
2022-08-02T12:39:57.987Z,98623.72
2022-08-02T12:42:25.787Z,98615.63
2022-08-02T12:44:53.400Z,98618.94
2022-08-02T12:47:21.559Z,98616.25
2022-08-02T12:50:08.089Z,98617.50
2022-08-02T12:52:34.568Z,98618.16
2022-08-02T12:55:00.889Z,98608.19
2022-08-02T12:57:27.323Z,98610.75
2022-08-02T12:59:53.923Z,98612.19
2022-08-02T13:02:21.474Z,98604.72
2022-08-02T13:04:50.087Z,98602.22
2022-08-02T13:07:17.325Z,98609.41
2022-08-02T13:09:45.581Z,98599.28
2022-08-02T13:12:12.323Z,98598.06
2022-08-02T13:14:41.819Z,98594.50
2022-08-02T13:17:08.998Z,98598.38
2022-08-02T13:19:36.791Z,98589.09
2022-08-02T13:22:03.986Z,98599.28
2022-08-02T13:24:39.634Z,98597.84
2022-08-02T13:27:17.415Z,98595.81
2022-08-02T13:29:43.897Z,98585.00
2022-08-02T13:32:11.561Z,98591.13
2022-08-02T13:34:38.210Z,98583.38
2022-08-02T13:37:04.618Z,98591.91
2022-08-02T13:39:31.005Z,98587.19
2022-08-02T13:41:57.330Z,98587.06
2022-08-02T13:44:23.645Z,98584.03
2022-08-02T13:46:49.942Z,98580.25
2022-08-02T13:49:19.914Z,98579.97
2022-08-02T13:51:47.647Z,98577.34
2022-08-02T13:54:14.511Z,98576.78
2022-08-02T13:56:40.840Z,98564.13
2022-08-02T13:59:53.926Z,98558.25
2022-08-02T14:01:54.242Z,98569.88
2022-08-02T14:04:20.697Z,98575.44
2022-08-02T14:06:47.010Z,98565.47
2022-08-02T14:09:16.988Z,98560.47
2022-08-02T14:11:43.689Z,98566.44
2022-08-02T14:14:16.477Z,98559.09
2022-08-02T14:16:44.331Z,98565.28
2022-08-02T14:19:15.956Z,98553.56
2022-08-02T14:21:46.523Z,98551.94
2022-08-02T14:24:14.194Z,98550.84
2022-08-02T14:26:40.528Z,98552.41
2022-08-02T14:29:06.902Z,98553.03
2022-08-02T14:31:33.281Z,98551.06
2022-08-02T14:33:59.667Z,98545.97
2022-08-02T14:36:27.696Z,98554.53
2022-08-02T14:38:54.684Z,98546.72
2022-08-02T14:41:21.000Z,98539.44
2022-08-02T14:44:05.647Z,98538.13
2022-08-02T14:46:32.822Z,98544.03
2022-08-02T14:49:02.292Z,98534.97
2022-08-02T14:51:29.800Z,98530.28
2022-08-02T14:54:02.730Z,98522.47
2022-08-02T14:56:30.049Z,98529.38
2022-08-02T14:58:56.439Z,98523.84
2022-08-02T15:01:26.177Z,98530.56
2022-08-02T15:06:19.189Z,98526.03
2022-08-02T15:08:45.620Z,98524.38
2022-08-02T15:11:12.068Z,98540.28
2022-08-02T15:13:42.374Z,98522.88
2022-08-02T15:16:09.875Z,98524.25
2022-08-02T15:18:36.417Z,98523.13
2022-08-02T15:21:09.728Z,98523.00
2022-08-02T15:23:50.145Z,98526.31
2022-08-02T15:26:16.591Z,98518.03
2022-08-02T15:28:43.006Z,98515.56
2022-08-02T15:31:09.344Z,98513.66
2022-08-02T15:33:35.718Z,98512.59
2022-08-02T15:36:02.349Z,98509.34
2022-08-02T15:38:28.709Z,98509.28
2022-08-02T15:40:55.019Z,98511.19
2022-08-02T15:43:21.622Z,98513.34
2022-08-02T15:45:47.987Z,98508.91
2022-08-02T15:48:14.478Z,98509.41
2022-08-02T15:50:40.832Z,98510.47
2022-08-02T15:53:07.245Z,98510.13
2022-08-02T15:55:52.063Z,98509.69
2022-08-02T15:58:22.612Z,98513.72
2022-08-02T16:00:49.132Z,98510.91
2022-08-02T16:03:15.540Z,98507.53
2022-08-02T16:05:41.990Z,98517.00
2022-08-02T16:08:08.308Z,98512.03
2022-08-02T16:10:34.981Z,98517.34
2022-08-02T16:13:20.026Z,98509.53
2022-08-02T16:15:46.331Z,98511.19
2022-08-02T16:18:12.709Z,98508.34
2022-08-02T16:20:39.102Z,98503.19
2022-08-02T16:23:05.562Z,98508.88
2022-08-02T16:25:32.017Z,98507.00
2022-08-02T16:28:06.058Z,98511.56
2022-08-02T16:30:34.363Z,98505.84
2022-08-02T16:33:00.810Z,98508.22
2022-08-02T16:35:28.282Z,98497.50
2022-08-02T16:37:54.713Z,98499.16
2022-08-02T16:40:21.450Z,98503.78
2022-08-02T16:42:50.259Z,98500.78
2022-08-02T16:45:17.189Z,98508.44
2022-08-02T16:47:55.858Z,98503.16
2022-08-02T16:50:28.124Z,98505.66
2022-08-02T16:52:58.809Z,98505.66
2022-08-02T16:55:25.962Z,98501.34
2022-08-02T16:57:56.965Z,98506.41
2022-08-02T17:00:23.761Z,98508.69
2022-08-02T17:02:50.100Z,98501.50
2022-08-02T17:05:16.499Z,98503.44
2022-08-02T17:08:10.476Z,98506.63
2022-08-02T17:10:29.924Z,98501.88
2022-08-02T17:12:56.617Z,98507.94
2022-08-02T17:15:46.990Z,98504.16
2022-08-02T17:18:10.411Z,98508.44
2022-08-02T17:20:36.841Z,98513.06
2022-08-02T17:23:03.909Z,98513.00
2022-08-02T17:25:31.806Z,98515.09
2022-08-02T17:27:58.563Z,98515.47
2022-08-02T17:30:26.914Z,98510.06
2022-08-02T17:32:53.807Z,98511.69
2022-08-02T17:35:20.166Z,98517.56
2022-08-02T17:37:54.589Z,98517.91
2022-08-02T17:40:26.324Z,98518.56
2022-08-02T17:42:52.646Z,98523.50
2022-08-02T17:45:25.180Z,98522.34
2022-08-02T17:48:04.613Z,98518.72
2022-08-02T17:50:32.029Z,98521.91
2022-08-02T17:52:58.784Z,98515.84
2022-08-02T17:55:25.406Z,98520.88
2022-08-02T17:57:57.464Z,98511.53
2022-08-02T18:00:38.090Z,98514.75
2022-08-02T18:03:06.074Z,98510.91
2022-08-02T18:08:23.259Z,98525.03
2022-08-02T18:10:50.444Z,98521.13
2022-08-02T18:13:16.876Z,98522.94
2022-08-02T18:15:45.791Z,98519.84
2022-08-02T18:18:12.480Z,98521.63
2022-08-02T18:20:38.775Z,98530.25
2022-08-02T18:23:06.146Z,98525.22
2022-08-02T18:25:46.765Z,98529.56
2022-08-02T18:28:15.151Z,98532.88
2022-08-02T18:30:41.745Z,98528.81
2022-08-02T18:33:57.762Z,98533.78
2022-08-02T18:35:55.460Z,98531.84
2022-08-02T18:38:22.268Z,98535.94
2022-08-02T18:43:38.166Z,98544.00
2022-08-02T18:46:15.680Z,98542.28
2022-08-02T18:48:44.245Z,98540.00
2022-08-02T18:51:13.795Z,98540.59
2022-08-02T18:53:42.109Z,98547.00
2022-08-02T18:56:19.424Z,98545.81
2022-08-02T18:58:50.129Z,98539.03
2022-08-02T19:01:31.413Z,98547.28
2022-08-02T19:03:59.691Z,98548.91
2022-08-02T19:06:27.458Z,98547.28
2022-08-02T19:09:03.555Z,98547.88
2022-08-02T19:11:37.993Z,98553.22
2022-08-02T19:14:05.091Z,98554.34
2022-08-02T19:16:37.295Z,98556.50
2022-08-02T19:19:05.105Z,98558.91
2022-08-02T19:22:16.458Z,98558.88
2022-08-02T19:24:17.869Z,98559.78
2022-08-02T19:26:51.331Z,98555.84
2022-08-02T19:29:42.232Z,98554.53
2022-08-02T19:32:06.286Z,98558.25
2022-08-02T19:34:52.561Z,98559.16
2022-08-02T19:37:18.925Z,98558.25
2022-08-02T19:39:45.826Z,98565.97
2022-08-02T19:42:12.432Z,98564.56
2022-08-02T19:44:43.229Z,98559.66
2022-08-02T19:47:12.179Z,98571.91
2022-08-02T19:49:40.172Z,98566.97
2022-08-02T19:52:27.343Z,98570.81
2022-08-02T19:54:55.284Z,98576.69
2022-08-02T19:57:23.028Z,98595.75
2022-08-02T19:59:51.373Z,98588.34
2022-08-02T20:02:18.504Z,98582.66
2022-08-02T20:04:49.924Z,98583.53
2022-08-02T20:07:49.847Z,98590.06
2022-08-02T20:10:05.972Z,98588.00
2022-08-02T20:12:37.510Z,98592.69
2022-08-02T20:15:07.691Z,98594.69
2022-08-02T20:17:47.283Z,98600.22
2022-08-02T20:20:14.294Z,98592.19
2022-08-02T20:22:59.114Z,98598.09
2022-08-02T20:25:25.759Z,98603.47
2022-08-02T20:27:55.717Z,98602.97
2022-08-02T20:30:22.157Z,98597.16
2022-08-02T20:32:58.897Z,98602.44
2022-08-02T20:35:41.009Z,98604.78
2022-08-02T20:38:09.381Z,98604.63
2022-08-02T20:40:38.331Z,98612.94
2022-08-02T20:43:04.626Z,98606.19
2022-08-02T20:45:34.077Z,98603.47
2022-08-02T20:48:00.401Z,98607.75
2022-08-02T20:50:45.650Z,98608.78
2022-08-02T20:53:23.542Z,98615.69
2022-08-02T20:55:52.718Z,98605.09
2022-08-02T20:58:19.408Z,98611.22
2022-08-02T21:00:46.415Z,98609.16
2022-08-02T21:03:14.315Z,98609.44
2022-08-02T21:05:54.138Z,98602.06
2022-08-02T21:08:22.353Z,98599.22
2022-08-02T21:10:51.835Z,98603.97
2022-08-02T21:13:25.937Z,98600.72
2022-08-02T21:16:13.684Z,98592.81
2022-08-02T21:18:46.213Z,98587.47
2022-08-02T21:24:01.433Z,98594.16
2022-08-02T21:26:31.309Z,98588.72
2022-08-02T21:29:03.091Z,98589.53
2022-08-02T21:31:33.462Z,98579.53
2022-08-02T21:34:02.740Z,98589.78
2022-08-02T21:36:31.928Z,98586.16
2022-08-02T21:39:00.015Z,98585.50
2022-08-02T21:41:40.039Z,98585.34
2022-08-02T21:44:18.616Z,98583.09
2022-08-02T21:46:49.801Z,98584.22
2022-08-02T21:49:17.208Z,98588.44
2022-08-02T21:51:43.733Z,98589.31
2022-08-02T21:57:02.436Z,98591.78
2022-08-02T21:59:30.463Z,98593.59
2022-08-02T22:01:59.212Z,98589.06
2022-08-02T22:04:26.179Z,98585.84
2022-08-02T22:06:56.117Z,98586.13
2022-08-02T22:09:43.568Z,98589.75
2022-08-02T22:12:10.334Z,98580.38
2022-08-02T22:14:39.415Z,98591.44
2022-08-02T22:17:08.738Z,98583.03
2022-08-02T22:19:39.963Z,98586.09
2022-08-02T22:22:18.862Z,98593.44
2022-08-02T22:24:45.146Z,98594.19
2022-08-02T22:27:11.661Z,98602.75
2022-08-02T22:29:40.087Z,98600.41
2022-08-02T22:32:06.919Z,98591.00
2022-08-02T22:34:51.647Z,98593.66
2022-08-02T22:38:16.884Z,98595.66
2022-08-02T22:40:09.267Z,98603.09
2022-08-02T22:42:36.001Z,98603.94
2022-08-02T22:45:02.438Z,98603.66
2022-08-02T22:47:29.710Z,98607.81
2022-08-02T22:50:05.193Z,98600.13
2022-08-02T22:52:38.130Z,98608.56
2022-08-02T22:55:04.567Z,98612.19
2022-08-02T22:57:31.432Z,98610.81
2022-08-02T22:58:43.167Z,98520.72
2022-08-02T22:58:59.555Z,98544.69
2022-08-02T22:59:03.801Z,98585.50
2022-08-02T22:59:10.714Z,98587.31
2022-08-02T22:59:58.166Z,98608.34
2022-08-02T23:02:24.986Z,98607.16
2022-08-02T23:04:51.650Z,98613.00
2022-08-02T23:07:18.014Z,98610.44
2022-08-02T23:09:44.370Z,98612.13
2022-08-02T23:12:10.696Z,98610.28
2022-08-02T23:14:37.004Z,98608.88
2022-08-02T23:17:22.003Z,98607.13
2022-08-02T23:19:51.301Z,98605.63
2022-08-02T23:22:18.318Z,98611.66
2022-08-02T23:24:45.541Z,98608.06
2022-08-02T23:27:11.851Z,98608.56
2022-08-02T23:29:38.141Z,98601.19
2022-08-02T23:32:04.421Z,98609.22
2022-08-02T23:34:32.960Z,98607.09
2022-08-02T23:36:59.394Z,98609.34
2022-08-02T23:39:25.727Z,98614.69
2022-08-02T23:41:54.879Z,98611.72
2022-08-02T23:44:21.899Z,98608.97
2022-08-02T23:46:48.220Z,98607.94
2022-08-02T23:49:15.961Z,98615.69
2022-08-02T23:51:42.562Z,98608.00
2022-08-02T23:54:09.659Z,98605.44
2022-08-02T23:56:36.238Z,98609.03
2022-08-02T23:59:02.663Z,98613.22
